KRIV/RIV METAR and TAF weather

Enter ICAO airport designator
Station Type Date Time Source
KRIV METAR 2020/09/22 03:58 UTC NOAA

KRIV 220358Z AUTO 00000KT 10SM CLR 23/12 A2996 RMK AO2 SLPNO T02280121


Station Type Date Time Source
KRIV Decoded METAR 2020/09/22 03:58 UTC NOAA

Riverside / March Air Force Base, CA, United States (KRIV) 33-54N 117-15W 468M
Sep 21, 2020 - 11:58 PM EDT / 2020.09.22 0358 UTC
Wind: Calm:0
Visibility: 10 mile(s):0
Sky conditions: clear
Temperature: 73.0 F (22.8 C)
Dew Point: 53.8 F (12.1 C)
Relative Humidity: 50%
Pressure (altimeter): 29.96 in. Hg (1014 hPa)
ob: KRIV 220358Z AUTO 00000KT 10SM CLR 23/12 A2996 RMK AO2 SLPNO T02280121
cycle: 4

Station Type Date Time Source
KRIV TAF 2020/09/22 04:11 UTC NOAA

TAF KRIV 220400Z 2204/2310 VRB05KT 9999 SKC QNH2994INS
BECMG 2218/2219 31009KT 9999 FEW100 FEW250 510009 QNH2995INS
TEMPO 2221/2301 31012G18KT
BECMG 2303/2304 VRB05KT 9999 SKC QNH2998INS TX34/2222Z TN12/2213Z

Example: see airport list